sensor_id;sensor_type;location;lat;lon;timestamp;P1;durP1;ratioP1;P2;durP2;ratioP2
30303;SDS011;17112;48.636;10.152;2023-09-18T00:00:49;3.80;;;2.58;;
30303;SDS011;17112;48.636;10.152;2023-09-18T00:03:15;3.47;;;2.10;;
30303;SDS011;17112;48.636;10.152;2023-09-18T00:05:48;6.35;;;2.65;;
30303;SDS011;17112;48.636;10.152;2023-09-18T00:08:14;3.38;;;2.45;;
30303;SDS011;17112;48.636;10.152;2023-09-18T00:10:41;5.88;;;2.20;;
30303;SDS011;17112;48.636;10.152;2023-09-18T00:13:07;3.63;;;2.40;;
30303;SDS011;17112;48.636;10.152;2023-09-18T00:15:32;7.85;;;2.17;;
30303;SDS011;17112;48.636;10.152;2023-09-18T00:17:58;2.70;;;2.17;;
30303;SDS011;17112;48.636;10.152;2023-09-18T00:20:23;4.38;;;2.53;;
30303;SDS011;17112;48.636;10.152;2023-09-18T00:22:55;5.03;;;2.50;;
30303;SDS011;17112;48.636;10.152;2023-09-18T00:25:21;4.15;;;2.55;;
30303;SDS011;17112;48.636;10.152;2023-09-18T00:27:48;2.20;;;1.92;;
30303;SDS011;17112;48.636;10.152;2023-09-18T00:30:14;5.82;;;2.30;;
30303;SDS011;17112;48.636;10.152;2023-09-18T00:32:40;3.70;;;2.30;;
30303;SDS011;17112;48.636;10.152;2023-09-18T00:35:05;4.07;;;2.35;;
30303;SDS011;17112;48.636;10.152;2023-09-18T00:37:31;3.80;;;2.40;;
30303;SDS011;17112;48.636;10.152;2023-09-18T00:39:57;2.78;;;2.33;;
30303;SDS011;17112;48.636;10.152;2023-09-18T00:42:23;4.40;;;2.38;;
30303;SDS011;17112;48.636;10.152;2023-09-18T00:44:49;2.95;;;2.53;;
30303;SDS011;17112;48.636;10.152;2023-09-18T00:47:15;3.78;;;2.50;;
30303;SDS011;17112;48.636;10.152;2023-09-18T00:49:43;5.53;;;2.22;;
30303;SDS011;17112;48.636;10.152;2023-09-18T00:52:13;3.10;;;2.45;;
30303;SDS011;17112;48.636;10.152;2023-09-18T00:54:40;4.43;;;2.58;;
30303;SDS011;17112;48.636;10.152;2023-09-18T00:57:07;5.88;;;2.83;;
30303;SDS011;17112;48.636;10.152;2023-09-18T00:59:35;2.97;;;2.30;;
30303;SDS011;17112;48.636;10.152;2023-09-18T01:02:01;3.08;;;2.00;;
30303;SDS011;17112;48.636;10.152;2023-09-18T01:04:28;5.47;;;2.35;;
30303;SDS011;17112;48.636;10.152;2023-09-18T01:06:55;5.90;;;2.20;;
30303;SDS011;17112;48.636;10.152;2023-09-18T01:09:23;3.28;;;2.42;;
30303;SDS011;17112;48.636;10.152;2023-09-18T01:12:00;3.58;;;2.63;;
30303;SDS011;17112;48.636;10.152;2023-09-18T01:16:59;5.32;;;2.90;;
30303;SDS011;17112;48.636;10.152;2023-09-18T01:19:35;4.32;;;2.47;;
30303;SDS011;17112;48.636;10.152;2023-09-18T01:22:09;3.97;;;2.35;;
30303;SDS011;17112;48.636;10.152;2023-09-18T01:24:38;2.90;;;2.25;;
30303;SDS011;17112;48.636;10.152;2023-09-18T01:27:07;6.20;;;2.67;;
30303;SDS011;17112;48.636;10.152;2023-09-18T01:29:34;3.17;;;2.58;;
30303;SDS011;17112;48.636;10.152;2023-09-18T01:32:00;3.10;;;2.15;;
30303;SDS011;17112;48.636;10.152;2023-09-18T01:34:30;5.90;;;2.33;;
30303;SDS011;17112;48.636;10.152;2023-09-18T01:36:58;4.25;;;2.40;;
30303;SDS011;17112;48.636;10.152;2023-09-18T01:39:25;2.42;;;2.22;;
30303;SDS011;17112;48.636;10.152;2023-09-18T01:41:56;4.90;;;2.53;;
30303;SDS011;17112;48.636;10.152;2023-09-18T01:44:35;3.92;;;2.67;;
30303;SDS011;17112;48.636;10.152;2023-09-18T01:47:05;3.40;;;2.90;;
30303;SDS011;17112;48.636;10.152;2023-09-18T01:49:34;5.43;;;2.40;;
30303;SDS011;17112;48.636;10.152;2023-09-18T01:52:01;5.32;;;2.65;;
30303;SDS011;17112;48.636;10.152;2023-09-18T01:54:29;4.07;;;2.53;;
30303;SDS011;17112;48.636;10.152;2023-09-18T01:56:55;2.70;;;2.50;;
30303;SDS011;17112;48.636;10.152;2023-09-18T01:59:21;3.05;;;2.65;;
30303;SDS011;17112;48.636;10.152;2023-09-18T02:01:48;3.13;;;2.40;;
30303;SDS011;17112;48.636;10.152;2023-09-18T02:04:14;5.70;;;2.95;;
30303;SDS011;17112;48.636;10.152;2023-09-18T02:06:40;6.18;;;2.80;;
30303;SDS011;17112;48.636;10.152;2023-09-18T02:09:06;3.00;;;2.45;;
30303;SDS011;17112;48.636;10.152;2023-09-18T02:11:36;3.15;;;2.85;;
30303;SDS011;17112;48.636;10.152;2023-09-18T02:14:03;4.07;;;2.72;;
30303;SDS011;17112;48.636;10.152;2023-09-18T02:16:31;3.90;;;2.35;;
30303;SDS011;17112;48.636;10.152;2023-09-18T02:18:58;4.68;;;3.83;;
30303;SDS011;17112;48.636;10.152;2023-09-18T02:21:24;6.55;;;2.80;;
30303;SDS011;17112;48.636;10.152;2023-09-18T02:23:51;2.72;;;2.53;;
30303;SDS011;17112;48.636;10.152;2023-09-18T02:26:18;6.00;;;2.83;;
30303;SDS011;17112;48.636;10.152;2023-09-18T02:28:44;6.03;;;2.95;;
30303;SDS011;17112;48.636;10.152;2023-09-18T02:31:10;4.18;;;3.03;;
30303;SDS011;17112;48.636;10.152;2023-09-18T02:33:37;4.93;;;2.92;;
30303;SDS011;17112;48.636;10.152;2023-09-18T02:36:03;4.30;;;3.08;;
30303;SDS011;17112;48.636;10.152;2023-09-18T02:38:29;4.70;;;3.33;;
30303;SDS011;17112;48.636;10.152;2023-09-18T02:40:57;4.32;;;2.90;;
30303;SDS011;17112;48.636;10.152;2023-09-18T02:43:23;4.07;;;2.65;;
30303;SDS011;17112;48.636;10.152;2023-09-18T02:45:49;5.32;;;3.28;;
30303;SDS011;17112;48.636;10.152;2023-09-18T02:48:16;5.50;;;3.00;;
30303;SDS011;17112;48.636;10.152;2023-09-18T02:50:41;5.32;;;3.00;;
30303;SDS011;17112;48.636;10.152;2023-09-18T02:53:11;4.13;;;3.08;;
30303;SDS011;17112;48.636;10.152;2023-09-18T02:55:47;3.47;;;2.90;;
30303;SDS011;17112;48.636;10.152;2023-09-18T02:58:14;3.63;;;2.67;;
30303;SDS011;17112;48.636;10.152;2023-09-18T03:00:45;3.85;;;2.88;;
30303;SDS011;17112;48.636;10.152;2023-09-18T03:03:12;3.95;;;2.92;;
30303;SDS011;17112;48.636;10.152;2023-09-18T03:05:38;5.43;;;3.13;;
30303;SDS011;17112;48.636;10.152;2023-09-18T03:08:05;4.00;;;3.20;;
30303;SDS011;17112;48.636;10.152;2023-09-18T03:10:34;4.78;;;2.97;;
30303;SDS011;17112;48.636;10.152;2023-09-18T03:13:01;4.82;;;2.90;;
30303;SDS011;17112;48.636;10.152;2023-09-18T03:15:29;4.53;;;3.17;;
30303;SDS011;17112;48.636;10.152;2023-09-18T03:17:55;5.78;;;3.35;;
30303;SDS011;17112;48.636;10.152;2023-09-18T03:20:25;5.47;;;3.30;;
30303;SDS011;17112;48.636;10.152;2023-09-18T03:22:52;6.88;;;3.30;;
30303;SDS011;17112;48.636;10.152;2023-09-18T03:25:25;3.78;;;2.97;;
30303;SDS011;17112;48.636;10.152;2023-09-18T03:27:52;3.25;;;2.83;;
30303;SDS011;17112;48.636;10.152;2023-09-18T03:30:19;5.78;;;3.00;;
30303;SDS011;17112;48.636;10.152;2023-09-18T03:32:46;15.30;;;3.05;;
30303;SDS011;17112;48.636;10.152;2023-09-18T03:35:13;4.55;;;2.67;;
30303;SDS011;17112;48.636;10.152;2023-09-18T03:40:11;6.35;;;3.35;;
30303;SDS011;17112;48.636;10.152;2023-09-18T03:42:37;4.68;;;3.40;;
30303;SDS011;17112;48.636;10.152;2023-09-18T03:45:05;5.95;;;3.35;;
30303;SDS011;17112;48.636;10.152;2023-09-18T03:47:31;4.45;;;3.65;;
30303;SDS011;17112;48.636;10.152;2023-09-18T03:49:57;4.15;;;3.40;;
30303;SDS011;17112;48.636;10.152;2023-09-18T03:52:22;5.65;;;3.67;;
30303;SDS011;17112;48.636;10.152;2023-09-18T03:54:48;4.07;;;3.67;;
30303;SDS011;17112;48.636;10.152;2023-09-18T03:57:14;5.28;;;3.88;;
30303;SDS011;17112;48.636;10.152;2023-09-18T03:59:40;7.90;;;4.20;;
30303;SDS011;17112;48.636;10.152;2023-09-18T04:02:05;6.28;;;3.72;;
30303;SDS011;17112;48.636;10.152;2023-09-18T04:04:31;5.40;;;3.70;;
30303;SDS011;17112;48.636;10.152;2023-09-18T04:06:57;5.50;;;3.83;;
30303;SDS011;17112;48.636;10.152;2023-09-18T04:09:23;6.97;;;3.83;;
30303;SDS011;17112;48.636;10.152;2023-09-18T04:11:48;5.05;;;3.50;;
30303;SDS011;17112;48.636;10.152;2023-09-18T04:14:14;3.70;;;3.40;;
30303;SDS011;17112;48.636;10.152;2023-09-18T04:16:40;4.72;;;3.38;;
30303;SDS011;17112;48.636;10.152;2023-09-18T04:19:07;4.05;;;3.45;;
30303;SDS011;17112;48.636;10.152;2023-09-18T04:21:33;4.78;;;3.42;;
30303;SDS011;17112;48.636;10.152;2023-09-18T04:23:59;7.88;;;3.70;;
30303;SDS011;17112;48.636;10.152;2023-09-18T04:26:24;5.25;;;3.40;;
30303;SDS011;17112;48.636;10.152;2023-09-18T04:28:55;4.00;;;3.60;;
30303;SDS011;17112;48.636;10.152;2023-09-18T04:31:21;5.30;;;3.30;;
30303;SDS011;17112;48.636;10.152;2023-09-18T04:33:47;5.35;;;3.60;;
30303;SDS011;17112;48.636;10.152;2023-09-18T04:36:13;5.03;;;3.42;;
30303;SDS011;17112;48.636;10.152;2023-09-18T04:38:39;3.63;;;3.30;;
30303;SDS011;17112;48.636;10.152;2023-09-18T04:41:04;4.32;;;3.55;;
30303;SDS011;17112;48.636;10.152;2023-09-18T04:43:33;3.92;;;3.50;;
30303;SDS011;17112;48.636;10.152;2023-09-18T04:45:59;4.07;;;3.10;;
30303;SDS011;17112;48.636;10.152;2023-09-18T04:48:27;3.75;;;3.22;;
30303;SDS011;17112;48.636;10.152;2023-09-18T04:50:52;6.43;;;4.03;;
30303;SDS011;17112;48.636;10.152;2023-09-18T04:53:18;4.65;;;3.40;;
30303;SDS011;17112;48.636;10.152;2023-09-18T04:55:45;5.38;;;3.38;;
30303;SDS011;17112;48.636;10.152;2023-09-18T04:58:14;6.75;;;3.50;;
30303;SDS011;17112;48.636;10.152;2023-09-18T05:00:40;5.78;;;3.88;;
30303;SDS011;17112;48.636;10.152;2023-09-18T05:03:06;4.50;;;3.63;;
30303;SDS011;17112;48.636;10.152;2023-09-18T05:05:33;5.03;;;3.92;;
30303;SDS011;17112;48.636;10.152;2023-09-18T05:08:01;6.55;;;3.65;;
30303;SDS011;17112;48.636;10.152;2023-09-18T05:10:28;8.35;;;3.85;;
30303;SDS011;17112;48.636;10.152;2023-09-18T05:12:54;5.15;;;4.05;;
30303;SDS011;17112;48.636;10.152;2023-09-18T05:15:23;5.00;;;3.72;;
30303;SDS011;17112;48.636;10.152;2023-09-18T05:17:51;11.00;;;4.22;;
30303;SDS011;17112;48.636;10.152;2023-09-18T05:20:20;6.47;;;4.25;;
30303;SDS011;17112;48.636;10.152;2023-09-18T05:22:49;10.85;;;3.70;;
30303;SDS011;17112;48.636;10.152;2023-09-18T05:25:15;5.38;;;4.07;;
30303;SDS011;17112;48.636;10.152;2023-09-18T05:27:42;7.20;;;4.43;;
30303;SDS011;17112;48.636;10.152;2023-09-18T05:30:14;8.90;;;6.30;;
30303;SDS011;17112;48.636;10.152;2023-09-18T05:32:41;8.88;;;6.40;;
30303;SDS011;17112;48.636;10.152;2023-09-18T05:35:08;10.65;;;5.55;;
30303;SDS011;17112;48.636;10.152;2023-09-18T05:37:39;7.35;;;5.45;;
30303;SDS011;17112;48.636;10.152;2023-09-18T05:40:08;10.07;;;6.13;;
30303;SDS011;17112;48.636;10.152;2023-09-18T05:42:38;10.20;;;6.35;;
30303;SDS011;17112;48.636;10.152;2023-09-18T05:45:07;12.20;;;6.22;;
30303;SDS011;17112;48.636;10.152;2023-09-18T05:47:34;8.18;;;5.72;;
30303;SDS011;17112;48.636;10.152;2023-09-18T05:50:03;7.20;;;5.90;;
30303;SDS011;17112;48.636;10.152;2023-09-18T05:52:31;9.13;;;5.55;;
30303;SDS011;17112;48.636;10.152;2023-09-18T05:54:58;6.82;;;5.25;;
30303;SDS011;17112;48.636;10.152;2023-09-18T05:57:24;7.00;;;4.30;;
30303;SDS011;17112;48.636;10.152;2023-09-18T05:59:50;5.70;;;4.28;;
30303;SDS011;17112;48.636;10.152;2023-09-18T06:02:15;5.55;;;4.55;;
30303;SDS011;17112;48.636;10.152;2023-09-18T06:04:41;7.30;;;4.60;;
30303;SDS011;17112;48.636;10.152;2023-09-18T06:07:08;6.13;;;4.18;;
30303;SDS011;17112;48.636;10.152;2023-09-18T06:09:34;7.35;;;4.32;;
30303;SDS011;17112;48.636;10.152;2023-09-18T06:12:00;4.25;;;3.80;;
30303;SDS011;17112;48.636;10.152;2023-09-18T06:14:25;5.13;;;4.10;;
30303;SDS011;17112;48.636;10.152;2023-09-18T06:16:51;9.18;;;4.60;;
30303;SDS011;17112;48.636;10.152;2023-09-18T06:19:17;7.38;;;4.63;;
30303;SDS011;17112;48.636;10.152;2023-09-18T06:21:43;9.73;;;4.47;;
30303;SDS011;17112;48.636;10.152;2023-09-18T06:24:09;5.85;;;4.65;;
30303;SDS011;17112;48.636;10.152;2023-09-18T06:26:35;4.70;;;4.13;;
30303;SDS011;17112;48.636;10.152;2023-09-18T06:29:00;7.90;;;4.30;;
30303;SDS011;17112;48.636;10.152;2023-09-18T06:31:27;6.72;;;4.53;;
30303;SDS011;17112;48.636;10.152;2023-09-18T06:33:53;6.63;;;4.35;;
30303;SDS011;17112;48.636;10.152;2023-09-18T06:36:19;6.90;;;4.75;;
30303;SDS011;17112;48.636;10.152;2023-09-18T06:38:45;10.13;;;4.60;;
30303;SDS011;17112;48.636;10.152;2023-09-18T06:41:10;14.63;;;4.35;;
30303;SDS011;17112;48.636;10.152;2023-09-18T06:43:36;11.10;;;4.35;;
30303;SDS011;17112;48.636;10.152;2023-09-18T06:46:01;17.13;;;4.75;;
30303;SDS011;17112;48.636;10.152;2023-09-18T06:48:29;9.90;;;4.18;;
30303;SDS011;17112;48.636;10.152;2023-09-18T06:50:58;13.50;;;4.68;;
30303;SDS011;17112;48.636;10.152;2023-09-18T06:53:25;7.90;;;4.40;;
30303;SDS011;17112;48.636;10.152;2023-09-18T06:55:54;11.88;;;4.78;;
30303;SDS011;17112;48.636;10.152;2023-09-18T06:58:20;15.30;;;4.63;;
30303;SDS011;17112;48.636;10.152;2023-09-18T07:00:46;11.50;;;4.60;;
30303;SDS011;17112;48.636;10.152;2023-09-18T07:03:12;6.90;;;4.10;;
30303;SDS011;17112;48.636;10.152;2023-09-18T07:05:39;9.55;;;4.63;;
30303;SDS011;17112;48.636;10.152;2023-09-18T07:08:05;9.32;;;4.55;;
30303;SDS011;17112;48.636;10.152;2023-09-18T07:10:35;9.32;;;4.57;;
30303;SDS011;17112;48.636;10.152;2023-09-18T07:13:00;11.50;;;4.93;;
30303;SDS011;17112;48.636;10.152;2023-09-18T07:15:26;6.68;;;4.43;;
30303;SDS011;17112;48.636;10.152;2023-09-18T07:17:52;11.88;;;4.65;;
30303;SDS011;17112;48.636;10.152;2023-09-18T07:20:17;8.90;;;4.18;;
30303;SDS011;17112;48.636;10.152;2023-09-18T07:22:46;4.32;;;3.70;;
30303;SDS011;17112;48.636;10.152;2023-09-18T07:25:12;5.22;;;3.80;;
30303;SDS011;17112;48.636;10.152;2023-09-18T07:27:38;5.07;;;4.25;;
30303;SDS011;17112;48.636;10.152;2023-09-18T07:30:09;9.90;;;4.00;;
30303;SDS011;17112;48.636;10.152;2023-09-18T07:32:41;7.53;;;4.40;;
30303;SDS011;17112;48.636;10.152;2023-09-18T07:35:08;8.07;;;4.20;;
30303;SDS011;17112;48.636;10.152;2023-09-18T07:37:38;5.07;;;4.32;;
30303;SDS011;17112;48.636;10.152;2023-09-18T07:40:07;5.25;;;4.03;;
30303;SDS011;17112;48.636;10.152;2023-09-18T07:42:33;6.63;;;4.40;;
30303;SDS011;17112;48.636;10.152;2023-09-18T07:44:59;11.45;;;4.72;;
30303;SDS011;17112;48.636;10.152;2023-09-18T07:47:25;5.97;;;4.63;;
30303;SDS011;17112;48.636;10.152;2023-09-18T07:49:50;5.53;;;4.40;;
30303;SDS011;17112;48.636;10.152;2023-09-18T07:52:17;7.80;;;4.43;;
30303;SDS011;17112;48.636;10.152;2023-09-18T07:54:43;7.47;;;3.83;;
30303;SDS011;17112;48.636;10.152;2023-09-18T07:57:09;8.73;;;3.80;;
30303;SDS011;17112;48.636;10.152;2023-09-18T07:59:35;7.75;;;3.60;;
30303;SDS011;17112;48.636;10.152;2023-09-18T08:02:01;5.57;;;3.28;;
30303;SDS011;17112;48.636;10.152;2023-09-18T08:04:27;5.35;;;3.33;;
30303;SDS011;17112;48.636;10.152;2023-09-18T08:06:56;7.60;;;3.45;;
30303;SDS011;17112;48.636;10.152;2023-09-18T08:09:21;8.60;;;3.17;;
30303;SDS011;17112;48.636;10.152;2023-09-18T08:11:47;8.25;;;3.50;;
30303;SDS011;17112;48.636;10.152;2023-09-18T08:14:14;8.80;;;3.80;;
30303;SDS011;17112;48.636;10.152;2023-09-18T08:16:41;8.48;;;3.35;;
30303;SDS011;17112;48.636;10.152;2023-09-18T08:19:07;6.15;;;3.30;;
30303;SDS011;17112;48.636;10.152;2023-09-18T08:21:32;7.28;;;3.50;;
30303;SDS011;17112;48.636;10.152;2023-09-18T08:23:58;7.88;;;4.05;;
30303;SDS011;17112;48.636;10.152;2023-09-18T08:26:24;11.30;;;3.80;;
30303;SDS011;17112;48.636;10.152;2023-09-18T08:28:53;5.10;;;3.22;;
30303;SDS011;17112;48.636;10.152;2023-09-18T08:31:19;5.53;;;3.05;;
30303;SDS011;17112;48.636;10.152;2023-09-18T08:33:45;7.50;;;3.50;;
30303;SDS011;17112;48.636;10.152;2023-09-18T08:36:10;9.73;;;3.90;;
30303;SDS011;17112;48.636;10.152;2023-09-18T08:38:37;8.48;;;3.65;;
30303;SDS011;17112;48.636;10.152;2023-09-18T08:41:03;11.40;;;3.92;;
30303;SDS011;17112;48.636;10.152;2023-09-18T08:43:29;7.57;;;3.70;;
30303;SDS011;17112;48.636;10.152;2023-09-18T08:45:57;7.68;;;3.58;;
30303;SDS011;17112;48.636;10.152;2023-09-18T08:48:26;5.70;;;3.17;;
30303;SDS011;17112;48.636;10.152;2023-09-18T08:51:03;8.45;;;3.35;;
30303;SDS011;17112;48.636;10.152;2023-09-18T08:53:34;12.32;;;3.53;;
30303;SDS011;17112;48.636;10.152;2023-09-18T08:56:01;9.20;;;3.20;;
30303;SDS011;17112;48.636;10.152;2023-09-18T08:58:32;9.98;;;2.90;;
30303;SDS011;17112;48.636;10.152;2023-09-18T09:01:01;7.25;;;3.10;;
30303;SDS011;17112;48.636;10.152;2023-09-18T09:03:34;8.77;;;2.92;;
30303;SDS011;17112;48.636;10.152;2023-09-18T09:06:12;9.40;;;2.90;;
30303;SDS011;17112;48.636;10.152;2023-09-18T09:08:38;7.25;;;2.83;;
30303;SDS011;17112;48.636;10.152;2023-09-18T09:11:04;6.63;;;2.75;;
30303;SDS011;17112;48.636;10.152;2023-09-18T09:13:30;7.00;;;2.50;;
30303;SDS011;17112;48.636;10.152;2023-09-18T09:15:57;11.93;;;2.38;;
30303;SDS011;17112;48.636;10.152;2023-09-18T09:18:27;9.60;;;2.60;;
30303;SDS011;17112;48.636;10.152;2023-09-18T09:20:57;14.32;;;2.70;;
30303;SDS011;17112;48.636;10.152;2023-09-18T09:24:07;15.32;;;2.13;;
30303;SDS011;17112;48.636;10.152;2023-09-18T09:26:17;5.63;;;1.85;;
30303;SDS011;17112;48.636;10.152;2023-09-18T09:28:44;7.20;;;2.22;;
30303;SDS011;17112;48.636;10.152;2023-09-18T09:31:11;10.27;;;1.38;;
30303;SDS011;17112;48.636;10.152;2023-09-18T09:33:37;5.28;;;1.17;;
30303;SDS011;17112;48.636;10.152;2023-09-18T09:36:05;6.53;;;1.20;;
30303;SDS011;17112;48.636;10.152;2023-09-18T09:38:32;2.50;;;0.90;;
30303;SDS011;17112;48.636;10.152;2023-09-18T09:41:01;3.60;;;0.93;;
30303;SDS011;17112;48.636;10.152;2023-09-18T09:43:32;4.78;;;1.05;;
30303;SDS011;17112;48.636;10.152;2023-09-18T09:45:58;2.67;;;0.90;;
30303;SDS011;17112;48.636;10.152;2023-09-18T09:48:25;2.30;;;0.85;;
30303;SDS011;17112;48.636;10.152;2023-09-18T09:50:51;2.35;;;0.82;;
30303;SDS011;17112;48.636;10.152;2023-09-18T09:53:20;3.03;;;1.00;;
30303;SDS011;17112;48.636;10.152;2023-09-18T09:56:13;3.38;;;0.70;;
30303;SDS011;17112;48.636;10.152;2023-09-18T09:58:44;4.53;;;0.90;;
30303;SDS011;17112;48.636;10.152;2023-09-18T10:01:24;2.95;;;0.70;;
30303;SDS011;17112;48.636;10.152;2023-09-18T10:03:52;5.05;;;0.88;;
30303;SDS011;17112;48.636;10.152;2023-09-18T10:06:20;4.07;;;1.05;;
30303;SDS011;17112;48.636;10.152;2023-09-18T10:08:46;3.95;;;0.90;;
30303;SDS011;17112;48.636;10.152;2023-09-18T10:11:12;3.53;;;1.10;;
30303;SDS011;17112;48.636;10.152;2023-09-18T10:13:48;2.45;;;0.80;;
30303;SDS011;17112;48.636;10.152;2023-09-18T10:16:30;3.30;;;0.90;;
30303;SDS011;17112;48.636;10.152;2023-09-18T10:19:09;4.38;;;0.90;;
30303;SDS011;17112;48.636;10.152;2023-09-18T10:24:26;3.50;;;0.85;;
30303;SDS011;17112;48.636;10.152;2023-09-18T10:27:00;5.93;;;1.38;;
30303;SDS011;17112;48.636;10.152;2023-09-18T10:29:29;4.40;;;1.00;;
30303;SDS011;17112;48.636;10.152;2023-09-18T10:31:57;5.57;;;0.93;;
30303;SDS011;17112;48.636;10.152;2023-09-18T10:34:24;3.03;;;0.70;;
30303;SDS011;17112;48.636;10.152;2023-09-18T10:36:50;2.53;;;0.80;;
30303;SDS011;17112;48.636;10.152;2023-09-18T10:39:17;2.67;;;0.88;;
30303;SDS011;17112;48.636;10.152;2023-09-18T10:41:51;5.10;;;0.98;;
30303;SDS011;17112;48.636;10.152;2023-09-18T10:44:18;3.53;;;0.90;;
30303;SDS011;17112;48.636;10.152;2023-09-18T10:46:45;4.35;;;0.85;;
30303;SDS011;17112;48.636;10.152;2023-09-18T10:49:11;4.90;;;0.90;;
30303;SDS011;17112;48.636;10.152;2023-09-18T10:51:37;2.22;;;0.80;;
30303;SDS011;17112;48.636;10.152;2023-09-18T10:54:10;3.22;;;0.90;;
30303;SDS011;17112;48.636;10.152;2023-09-18T10:56:40;5.10;;;0.90;;
30303;SDS011;17112;48.636;10.152;2023-09-18T10:59:09;3.28;;;1.00;;
30303;SDS011;17112;48.636;10.152;2023-09-18T11:01:35;2.95;;;0.90;;
30303;SDS011;17112;48.636;10.152;2023-09-18T11:04:03;3.22;;;0.95;;
30303;SDS011;17112;48.636;10.152;2023-09-18T11:07:00;1.77;;;0.73;;
30303;SDS011;17112;48.636;10.152;2023-09-18T11:09:24;3.97;;;0.85;;
30303;SDS011;17112;48.636;10.152;2023-09-18T11:11:54;4.82;;;0.82;;
30303;SDS011;17112;48.636;10.152;2023-09-18T11:22:34;1.27;;;0.70;;
30303;SDS011;17112;48.636;10.152;2023-09-18T11:27:59;2.05;;;0.65;;
30303;SDS011;17112;48.636;10.152;2023-09-18T11:30:27;0.85;;;0.60;;
30303;SDS011;17112;48.636;10.152;2023-09-18T11:32:54;1.80;;;0.70;;
30303;SDS011;17112;48.636;10.152;2023-09-18T11:35:20;2.70;;;0.57;;
30303;SDS011;17112;48.636;10.152;2023-09-18T11:37:47;0.60;;;0.45;;
30303;SDS011;17112;48.636;10.152;2023-09-18T11:40:31;3.28;;;0.52;;
30303;SDS011;17112;48.636;10.152;2023-09-18T11:45:54;2.15;;;0.50;;
30303;SDS011;17112;48.636;10.152;2023-09-18T11:48:22;2.58;;;1.20;;
30303;SDS011;17112;48.636;10.152;2023-09-18T11:50:54;3.65;;;1.17;;
30303;SDS011;17112;48.636;10.152;2023-09-18T11:53:26;6.07;;;0.60;;
30303;SDS011;17112;48.636;10.152;2023-09-18T11:55:53;3.65;;;0.88;;
30303;SDS011;17112;48.636;10.152;2023-09-18T11:58:18;4.63;;;0.70;;
30303;SDS011;17112;48.636;10.152;2023-09-18T12:00:48;2.60;;;0.82;;
30303;SDS011;17112;48.636;10.152;2023-09-18T12:03:18;3.22;;;0.95;;
30303;SDS011;17112;48.636;10.152;2023-09-18T12:05:56;3.03;;;0.80;;
30303;SDS011;17112;48.636;10.152;2023-09-18T12:08:24;3.05;;;0.80;;
30303;SDS011;17112;48.636;10.152;2023-09-18T12:10:51;2.45;;;0.77;;
30303;SDS011;17112;48.636;10.152;2023-09-18T12:13:18;5.30;;;0.80;;
30303;SDS011;17112;48.636;10.152;2023-09-18T12:15:44;4.47;;;0.90;;
30303;SDS011;17112;48.636;10.152;2023-09-18T12:18:11;3.25;;;1.15;;
30303;SDS011;17112;48.636;10.152;2023-09-18T12:20:37;3.70;;;0.80;;
30303;SDS011;17112;48.636;10.152;2023-09-18T12:23:09;3.45;;;0.90;;
30303;SDS011;17112;48.636;10.152;2023-09-18T12:25:35;8.90;;;1.25;;
30303;SDS011;17112;48.636;10.152;2023-09-18T12:28:01;3.00;;;1.00;;
30303;SDS011;17112;48.636;10.152;2023-09-18T12:30:29;3.90;;;1.30;;
30303;SDS011;17112;48.636;10.152;2023-09-18T12:32:57;5.97;;;1.00;;
30303;SDS011;17112;48.636;10.152;2023-09-18T12:35:26;1.80;;;0.98;;
30303;SDS011;17112;48.636;10.152;2023-09-18T12:38:00;3.47;;;1.15;;
30303;SDS011;17112;48.636;10.152;2023-09-18T12:40:29;5.30;;;1.35;;
30303;SDS011;17112;48.636;10.152;2023-09-18T12:42:58;6.38;;;1.45;;
30303;SDS011;17112;48.636;10.152;2023-09-18T12:45:25;3.05;;;1.13;;
30303;SDS011;17112;48.636;10.152;2023-09-18T12:47:51;3.83;;;1.20;;
30303;SDS011;17112;48.636;10.152;2023-09-18T12:50:19;5.00;;;1.10;;
30303;SDS011;17112;48.636;10.152;2023-09-18T12:52:44;6.70;;;1.30;;
30303;SDS011;17112;48.636;10.152;2023-09-18T12:55:26;4.95;;;1.00;;
30303;SDS011;17112;48.636;10.152;2023-09-18T12:57:52;2.75;;;1.00;;
30303;SDS011;17112;48.636;10.152;2023-09-18T13:00:19;4.47;;;1.00;;
30303;SDS011;17112;48.636;10.152;2023-09-18T13:02:48;2.47;;;1.15;;
30303;SDS011;17112;48.636;10.152;2023-09-18T13:05:20;3.38;;;0.90;;
30303;SDS011;17112;48.636;10.152;2023-09-18T13:07:51;1.77;;;0.85;;
30303;SDS011;17112;48.636;10.152;2023-09-18T13:10:20;4.15;;;1.13;;
30303;SDS011;17112;48.636;10.152;2023-09-18T13:12:50;2.67;;;1.10;;
30303;SDS011;17112;48.636;10.152;2023-09-18T13:17:53;4.90;;;2.00;;
30303;SDS011;17112;48.636;10.152;2023-09-18T13:20:26;1.98;;;0.90;;
30303;SDS011;17112;48.636;10.152;2023-09-18T13:22:57;2.75;;;1.10;;
30303;SDS011;17112;48.636;10.152;2023-09-18T13:25:26;1.92;;;0.90;;
30303;SDS011;17112;48.636;10.152;2023-09-18T13:27:54;2.88;;;0.98;;
30303;SDS011;17112;48.636;10.152;2023-09-18T13:30:20;2.22;;;0.90;;
30303;SDS011;17112;48.636;10.152;2023-09-18T13:32:50;1.77;;;0.85;;
30303;SDS011;17112;48.636;10.152;2023-09-18T13:35:16;8.35;;;1.33;;
30303;SDS011;17112;48.636;10.152;2023-09-18T13:37:43;2.50;;;1.02;;
30303;SDS011;17112;48.636;10.152;2023-09-18T13:40:10;5.03;;;1.13;;
30303;SDS011;17112;48.636;10.152;2023-09-18T13:42:37;2.17;;;0.98;;
30303;SDS011;17112;48.636;10.152;2023-09-18T13:45:03;2.03;;;0.98;;
30303;SDS011;17112;48.636;10.152;2023-09-18T13:47:31;2.85;;;1.20;;
30303;SDS011;17112;48.636;10.152;2023-09-18T13:49:59;2.95;;;1.20;;
30303;SDS011;17112;48.636;10.152;2023-09-18T13:52:28;2.38;;;1.20;;
30303;SDS011;17112;48.636;10.152;2023-09-18T13:54:55;6.85;;;1.38;;
30303;SDS011;17112;48.636;10.152;2023-09-18T13:57:21;1.52;;;1.10;;
30303;SDS011;17112;48.636;10.152;2023-09-18T13:59:47;2.38;;;1.10;;
30303;SDS011;17112;48.636;10.152;2023-09-18T14:02:14;3.47;;;1.00;;
30303;SDS011;17112;48.636;10.152;2023-09-18T14:04:41;4.80;;;1.05;;
30303;SDS011;17112;48.636;10.152;2023-09-18T14:07:07;2.70;;;1.20;;
30303;SDS011;17112;48.636;10.152;2023-09-18T14:09:34;3.33;;;0.80;;
30303;SDS011;17112;48.636;10.152;2023-09-18T14:12:00;4.55;;;1.08;;
30303;SDS011;17112;48.636;10.152;2023-09-18T14:14:27;1.73;;;1.00;;
30303;SDS011;17112;48.636;10.152;2023-09-18T14:16:53;2.38;;;1.17;;
30303;SDS011;17112;48.636;10.152;2023-09-18T14:19:19;0.82;;;0.80;;
30303;SDS011;17112;48.636;10.152;2023-09-18T14:21:46;2.38;;;1.00;;
30303;SDS011;17112;48.636;10.152;2023-09-18T14:24:14;1.48;;;0.90;;
30303;SDS011;17112;48.636;10.152;2023-09-18T14:26:43;2.00;;;1.00;;
30303;SDS011;17112;48.636;10.152;2023-09-18T14:29:09;3.17;;;1.13;;
30303;SDS011;17112;48.636;10.152;2023-09-18T14:31:38;2.20;;;0.90;;
30303;SDS011;17112;48.636;10.152;2023-09-18T14:34:04;4.65;;;1.08;;
30303;SDS011;17112;48.636;10.152;2023-09-18T14:36:31;3.17;;;1.10;;
30303;SDS011;17112;48.636;10.152;2023-09-18T14:38:58;6.20;;;1.17;;
30303;SDS011;17112;48.636;10.152;2023-09-18T14:41:25;5.55;;;0.90;;
30303;SDS011;17112;48.636;10.152;2023-09-18T14:43:51;2.17;;;1.02;;
30303;SDS011;17112;48.636;10.152;2023-09-18T14:46:17;4.68;;;1.00;;
30303;SDS011;17112;48.636;10.152;2023-09-18T14:48:43;3.53;;;0.88;;
30303;SDS011;17112;48.636;10.152;2023-09-18T14:51:09;3.30;;;0.90;;
30303;SDS011;17112;48.636;10.152;2023-09-18T14:53:34;1.73;;;0.75;;
30303;SDS011;17112;48.636;10.152;2023-09-18T14:56:00;2.40;;;1.00;;
30303;SDS011;17112;48.636;10.152;2023-09-18T14:58:26;3.15;;;1.00;;
30303;SDS011;17112;48.636;10.152;2023-09-18T15:00:53;2.60;;;0.90;;